Airfield :
LOGIN :

Register | Disclaimer

   EN    FR    IT 

 










Legend :    VFR   Marginal VFR   IFR   Intensive IFR   Very Intensive IFR
Visi :
Ceiling :
>= 8 km
>= 3000ft
5 to 8 km
1000 to 3000 ft
1500m to 5 km
500 to 1000 ft
800 to 1500m
200 to 500 ft
< 800m
< 200 ft
Symbols :   Thunderstorms  Fog  Heavy snow  Heavy precipitations  Wind > 20 kt
SIGMETs :     Misc.  Thunderstorms  Icing  Turbulence  Mountain Waves  Volcanic Ashes






- Airport Elevation : 184 ft
- IATA code : BRU


EBBR - Bruxelles

CURRENT METAR :
  • 261050Z 24008KT 3700 BR BKN013 03/00 Q1033 BECMG 7KM

EXPIRED METARs :
  • 261020Z 24006KT 3700 BR BKN012 02/00 Q1033 BECMG 7KM
  • 260950Z 27007KT 3400 BR BKN009 BKN014 02/00 Q1034 NOSIG
  • 260920Z 26007KT 3200 BR BKN008 BKN014 02/00 Q1033 NOSIG
  • 260850Z 26005KT 2600 BR BKN008 BKN014 02/M00 Q1033 NOSIG
  • 260820Z 25006KT 2400 BR BKN008 BKN014 02/00 Q1033 NOSIG
  • 260750Z 23005KT 2300 BR BKN008 BKN014 02/00 Q1033 NOSIG

TAF TAF EBBR
Valid from the 26 at 06:00 until the 27 at 12:00 UTC


260502Z 2606/2712 24003KT 3000 BR BKN008
PROB30 2606/2609 BKN013
BECMG 2609/2612 7000 NSW BKN016
BECMG 2700/2703 23013KT



MET'MAP, your aeronautical weather chart ! - Copyright ORBIFLY December 2007 - Disclaimer

ORBIFLY MET'MAP TEAM :

Programming & Development : Alexandra Zaïnal
Original concept : Baudouin d'Aumeries
Technical & hardware support : Manuel Goepfert
Assistance : Marc-Olivier Méhu

Contact : metmap@orbifly.com




SOURCES & CREDITS :

   NOAA